createdAt,value
2022-12-31T00:01:39.802Z,97684.63
2022-12-31T00:04:12.457Z,97690.28
2022-12-31T00:06:46.153Z,97696.84
2022-12-31T00:09:15.045Z,97687.22
2022-12-31T00:11:45.782Z,97685.84
2022-12-31T00:14:14.789Z,97692.38
2022-12-31T00:16:46.704Z,97692.38
2022-12-31T00:19:15.277Z,97675.00
2022-12-31T00:21:45.226Z,97699.16
2022-12-31T00:24:13.698Z,97694.84
2022-12-31T00:26:44.377Z,97690.03
2022-12-31T00:29:12.956Z,97684.03
2022-12-31T00:31:41.500Z,97688.31
2022-12-31T00:34:10.888Z,97680.09
2022-12-31T00:36:42.547Z,97690.41
2022-12-31T00:39:12.036Z,97696.41
2022-12-31T00:41:40.816Z,97699.25
2022-12-31T00:44:12.599Z,97702.09
2022-12-31T00:49:08.857Z,97708.97
2022-12-31T00:51:37.445Z,97699.72
2022-12-31T00:54:07.230Z,97693.19
2022-12-31T00:56:37.764Z,97710.16
2022-12-31T00:59:06.808Z,97701.50
2022-12-31T01:01:41.094Z,97708.34
2022-12-31T01:04:14.345Z,97706.72
2022-12-31T01:06:44.583Z,97728.34
2022-12-31T01:09:19.004Z,97717.00
2022-12-31T01:11:50.833Z,97723.38
2022-12-31T01:14:21.012Z,97740.63
2022-12-31T01:16:53.874Z,97733.31
2022-12-31T01:19:25.158Z,97726.41
2022-12-31T01:21:54.518Z,97734.81
2022-12-31T01:24:23.815Z,97736.09
2022-12-31T01:26:52.884Z,97745.53
2022-12-31T01:29:21.493Z,97758.06
2022-12-31T01:31:51.559Z,97757.78
2022-12-31T01:34:20.210Z,97754.94
2022-12-31T01:36:48.746Z,97761.69
2022-12-31T01:39:17.252Z,97753.88
2022-12-31T01:41:48.503Z,97776.56
2022-12-31T01:44:54.204Z,97767.00
2022-12-31T01:47:37.543Z,97759.72
2022-12-31T01:50:15.263Z,97762.13
2022-12-31T01:52:51.035Z,97772.53
2022-12-31T01:55:25.281Z,97759.72
2022-12-31T01:57:58.963Z,97760.03
2022-12-31T02:00:28.178Z,97766.47
2022-12-31T02:02:58.306Z,97767.78
2022-12-31T02:05:35.230Z,97756.09
2022-12-31T02:08:05.397Z,97759.78
2022-12-31T02:10:34.591Z,97746.06
2022-12-31T02:13:03.639Z,97748.66
2022-12-31T02:15:47.146Z,97755.03
2022-12-31T02:18:30.336Z,97747.94
2022-12-31T02:21:31.320Z,97761.28
2022-12-31T02:24:47.119Z,97767.69
2022-12-31T02:27:34.889Z,97783.16
2022-12-31T02:30:14.020Z,97776.63
2022-12-31T02:33:09.078Z,97779.03
2022-12-31T02:35:50.610Z,97771.47
2022-12-31T02:38:25.765Z,97761.94
2022-12-31T02:40:55.540Z,97762.63
2022-12-31T02:43:24.981Z,97769.63
2022-12-31T02:46:14.668Z,97785.66
2022-12-31T02:48:53.605Z,97785.88
2022-12-31T02:51:42.527Z,97776.50
2022-12-31T02:54:33.824Z,97778.28
2022-12-31T02:57:13.638Z,97779.09
2022-12-31T03:00:10.492Z,97782.63
2022-12-31T03:02:45.015Z,97793.81
2022-12-31T03:05:17.440Z,97787.34
2022-12-31T03:07:47.504Z,97786.56
2022-12-31T03:10:16.433Z,97790.31
2022-12-31T03:12:48.431Z,97803.88
2022-12-31T03:15:23.334Z,97794.50
2022-12-31T03:18:02.235Z,97782.50
2022-12-31T03:20:52.549Z,97787.41
2022-12-31T03:23:29.321Z,97793.03
2022-12-31T03:25:58.690Z,97790.34
2022-12-31T03:28:30.099Z,97792.28
2022-12-31T03:31:01.918Z,97797.22
2022-12-31T03:33:37.767Z,97810.63
2022-12-31T03:36:09.586Z,97809.09
2022-12-31T03:38:38.716Z,97815.94
2022-12-31T03:41:07.707Z,97821.97
2022-12-31T03:43:36.337Z,97825.34
2022-12-31T03:46:05.134Z,97822.56
2022-12-31T03:48:34.997Z,97826.22
2022-12-31T03:51:06.665Z,97833.91
2022-12-31T03:53:35.701Z,97825.16
2022-12-31T03:56:06.700Z,97823.91
2022-12-31T03:58:35.398Z,97819.75
2022-12-31T04:01:03.866Z,97822.09
2022-12-31T04:03:33.814Z,97823.63
2022-12-31T04:06:02.619Z,97823.63
2022-12-31T04:08:31.064Z,97832.69
2022-12-31T04:10:59.564Z,97823.38
2022-12-31T04:13:29.717Z,97821.50
2022-12-31T04:15:58.787Z,97818.09
2022-12-31T04:18:27.404Z,97823.19
2022-12-31T04:21:03.339Z,97829.47
2022-12-31T04:23:32.641Z,97824.16
2022-12-31T04:26:01.259Z,97816.75
2022-12-31T04:28:29.731Z,97822.97
2022-12-31T04:30:59.796Z,97825.69
2022-12-31T04:33:28.362Z,97831.22
2022-12-31T04:36:03.758Z,97832.13
2022-12-31T04:38:33.214Z,97830.91
2022-12-31T04:41:20.938Z,97833.31
2022-12-31T04:43:53.164Z,97840.66
2022-12-31T04:46:24.598Z,97844.84
2022-12-31T04:48:53.380Z,97852.06
2022-12-31T04:51:24.961Z,97860.88
2022-12-31T04:53:54.720Z,97869.78
2022-12-31T04:56:23.572Z,97871.81
2022-12-31T04:58:52.790Z,97868.56
2022-12-31T05:01:22.211Z,97875.59
2022-12-31T05:03:51.373Z,97861.78
2022-12-31T05:06:23.959Z,97859.13
2022-12-31T05:08:52.481Z,97863.00
2022-12-31T05:11:21.535Z,97861.47
2022-12-31T05:13:50.021Z,97868.81
2022-12-31T05:16:18.524Z,97879.88
2022-12-31T05:18:47.104Z,97879.75
2022-12-31T05:21:22.783Z,97868.13
2022-12-31T05:23:51.472Z,97857.41
2022-12-31T05:26:19.963Z,97873.38
2022-12-31T05:28:48.839Z,97856.97
2022-12-31T05:31:17.329Z,97859.66
2022-12-31T05:33:46.200Z,97867.94
2022-12-31T05:36:15.295Z,97870.78
2022-12-31T05:38:46.420Z,97881.81
2022-12-31T05:41:14.999Z,97870.50
2022-12-31T05:43:43.506Z,97858.34
2022-12-31T05:46:12.364Z,97865.34
2022-12-31T05:48:41.239Z,97880.50
2022-12-31T05:51:09.713Z,97877.41
2022-12-31T05:53:38.320Z,97877.88
2022-12-31T05:56:08.399Z,97886.06
2022-12-31T05:58:37.813Z,97878.13
2022-12-31T06:01:06.863Z,97890.75
2022-12-31T06:03:35.478Z,97885.38
2022-12-31T06:06:04.366Z,97893.94
2022-12-31T06:08:33.435Z,97896.84
2022-12-31T06:11:02.192Z,97892.34
2022-12-31T06:13:32.237Z,97896.03
2022-12-31T06:16:07.169Z,97898.41
2022-12-31T06:18:35.765Z,97899.34
2022-12-31T06:21:05.451Z,97903.31
2022-12-31T06:23:34.045Z,97894.25
2022-12-31T06:26:03.612Z,97898.22
2022-12-31T06:28:33.541Z,97892.81
2022-12-31T06:31:03.395Z,97898.22
2022-12-31T06:33:32.605Z,97885.16
2022-12-31T06:36:05.383Z,97891.09
2022-12-31T06:38:38.667Z,97894.56
2022-12-31T06:41:10.166Z,97893.41
2022-12-31T06:43:41.709Z,97900.13
2022-12-31T06:46:12.880Z,97896.91
2022-12-31T06:48:43.058Z,97902.03
2022-12-31T06:51:17.258Z,97897.53
2022-12-31T06:53:48.314Z,97903.06
2022-12-31T06:56:20.774Z,97900.06
2022-12-31T06:58:52.210Z,97900.84
2022-12-31T07:01:44.339Z,97911.72
2022-12-31T07:05:12.582Z,97913.25
2022-12-31T07:07:56.323Z,97913.56
2022-12-31T07:10:40.726Z,97930.41
2022-12-31T07:13:43.207Z,97923.81
2022-12-31T07:16:32.930Z,97928.63
2022-12-31T07:19:19.488Z,97933.28
2022-12-31T07:21:54.402Z,97923.50
2022-12-31T07:24:23.986Z,97922.91
2022-12-31T07:27:27.347Z,97928.72
2022-12-31T07:30:06.177Z,97932.66
2022-12-31T07:33:04.093Z,97934.72
2022-12-31T07:35:48.647Z,97936.81
2022-12-31T07:38:30.663Z,97931.53
2022-12-31T07:41:13.628Z,97951.31
2022-12-31T07:43:57.438Z,97938.63
2022-12-31T07:46:37.130Z,97948.41
2022-12-31T07:49:12.120Z,97941.91
2022-12-31T07:51:43.552Z,97949.94
2022-12-31T07:54:17.881Z,97951.63
2022-12-31T07:56:48.074Z,97959.78
2022-12-31T08:00:03.423Z,97965.41
2022-12-31T08:03:10.489Z,97974.06
2022-12-31T08:05:53.394Z,97971.69
2022-12-31T08:08:43.216Z,97969.03
2022-12-31T08:11:27.006Z,97966.72
2022-12-31T08:13:57.281Z,97963.91
2022-12-31T08:16:29.853Z,97966.84
2022-12-31T08:18:59.106Z,97980.88
2022-12-31T08:21:45.327Z,97976.72
2022-12-31T08:30:03.946Z,97969.88
2022-12-31T08:32:42.195Z,97975.47
2022-12-31T08:35:29.374Z,97979.47
2022-12-31T08:38:10.836Z,97984.78
2022-12-31T08:40:55.343Z,97981.06
2022-12-31T08:43:40.576Z,97983.38
2022-12-31T08:46:21.620Z,97976.25
2022-12-31T08:48:50.788Z,97989.25
2022-12-31T08:51:23.542Z,97981.13
2022-12-31T08:53:55.312Z,97987.88
2022-12-31T08:56:33.791Z,97982.78
2022-12-31T08:59:27.529Z,97984.53
2022-12-31T09:02:30.632Z,97981.16
2022-12-31T09:05:17.516Z,97989.16
2022-12-31T09:08:11.836Z,97997.13
2022-12-31T09:10:51.717Z,97982.13
2022-12-31T09:13:38.089Z,97996.66
2022-12-31T09:16:18.772Z,97998.38
2022-12-31T09:18:47.905Z,97996.59
2022-12-31T09:21:17.774Z,97993.00
2022-12-31T09:23:47.219Z,98000.34
2022-12-31T09:26:42.435Z,98000.22
2022-12-31T09:29:24.228Z,98000.03
2022-12-31T09:32:05.931Z,98009.00
2022-12-31T09:34:47.933Z,98003.66
2022-12-31T09:37:30.341Z,98002.94
2022-12-31T09:40:11.837Z,97997.78
2022-12-31T09:46:19.982Z,98000.47
2022-12-31T09:49:40.770Z,97994.88
2022-12-31T09:52:27.534Z,97996.06
2022-12-31T09:55:23.325Z,97993.09
2022-12-31T09:58:13.959Z,97998.06
2022-12-31T10:00:53.364Z,97991.19
2022-12-31T10:03:54.659Z,97999.44
2022-12-31T10:06:32.207Z,98003.69
2022-12-31T10:09:29.414Z,98008.69
2022-12-31T10:12:26.132Z,98012.38
2022-12-31T10:15:45.092Z,98020.72
2022-12-31T10:18:37.822Z,98024.63
2022-12-31T10:21:33.621Z,98016.41
2022-12-31T10:24:46.477Z,98002.38
2022-12-31T10:27:39.011Z,98006.25
2022-12-31T10:30:18.443Z,97999.16
2022-12-31T10:33:07.775Z,97994.63
2022-12-31T10:35:51.747Z,97996.91
2022-12-31T10:38:34.739Z,98004.06
2022-12-31T10:42:00.840Z,98004.31
2022-12-31T10:45:06.052Z,98009.91
2022-12-31T10:48:20.047Z,98011.06
2022-12-31T10:51:44.218Z,98017.69
2022-12-31T10:54:39.408Z,98006.56
2022-12-31T10:57:48.935Z,98006.91
2022-12-31T11:00:21.282Z,98007.81
2022-12-31T11:03:53.202Z,98006.44
2022-12-31T11:07:22.148Z,97999.69
2022-12-31T11:10:42.581Z,97991.88
2022-12-31T11:13:42.568Z,97982.69
2022-12-31T11:16:57.453Z,97988.84
2022-12-31T11:19:38.328Z,97981.63
2022-12-31T11:22:49.578Z,97979.28
2022-12-31T11:25:33.915Z,97981.41
2022-12-31T11:28:37.670Z,97986.56
2022-12-31T11:31:28.541Z,97976.81
2022-12-31T11:34:18.433Z,97985.22
2022-12-31T11:37:06.986Z,97982.53
2022-12-31T11:39:53.922Z,97976.19
2022-12-31T11:42:33.933Z,97983.06
2022-12-31T11:45:15.829Z,97995.03
2022-12-31T11:48:29.543Z,97976.97
2022-12-31T11:51:11.478Z,97973.69
2022-12-31T11:54:15.468Z,97971.44
2022-12-31T11:56:54.827Z,97971.19
2022-12-31T11:59:23.682Z,97967.03
2022-12-31T12:02:00.848Z,97965.69
2022-12-31T12:04:29.617Z,97975.66
2022-12-31T12:06:58.383Z,97973.94
2022-12-31T12:09:32.115Z,97954.94
2022-12-31T12:12:06.162Z,97950.78
2022-12-31T12:14:38.651Z,97949.72
2022-12-31T12:17:11.474Z,97949.78
2022-12-31T12:19:47.511Z,97949.16
2022-12-31T12:22:24.793Z,97954.56
2022-12-31T12:24:56.685Z,97955.63
2022-12-31T12:27:32.287Z,97950.25
2022-12-31T12:30:11.695Z,97951.84
2022-12-31T12:32:40.248Z,97945.47
2022-12-31T12:35:16.984Z,97945.63
2022-12-31T12:37:45.603Z,97940.44
2022-12-31T12:40:33.368Z,97935.97
2022-12-31T12:43:04.870Z,97938.28
2022-12-31T12:45:51.339Z,97948.41
2022-12-31T12:48:31.855Z,97942.09
2022-12-31T12:51:02.187Z,97952.66
2022-12-31T12:53:46.631Z,97954.44
2022-12-31T12:56:31.654Z,97934.53
2022-12-31T12:59:53.504Z,97934.41
2022-12-31T13:03:02.672Z,97945.00
2022-12-31T13:05:53.241Z,97942.94
2022-12-31T13:08:54.359Z,97950.63
2022-12-31T13:11:39.708Z,97959.38
2022-12-31T13:14:26.677Z,97960.88
2022-12-31T13:17:05.171Z,97957.66
2022-12-31T13:19:50.310Z,97946.81
2022-12-31T13:22:31.551Z,97939.91
2022-12-31T13:25:08.790Z,97938.06
2022-12-31T13:27:42.751Z,97926.38
2022-12-31T13:30:21.279Z,97924.25
2022-12-31T13:33:01.404Z,97930.88
2022-12-31T13:35:40.595Z,97925.72
2022-12-31T13:38:19.603Z,97928.72
2022-12-31T13:40:57.610Z,97936.19
2022-12-31T13:43:39.265Z,97942.22
2022-12-31T13:46:22.438Z,97937.78
2022-12-31T13:48:57.568Z,97938.72
2022-12-31T13:51:41.238Z,97940.50
2022-12-31T13:54:28.453Z,97938.03
2022-12-31T13:57:05.511Z,97942.13
2022-12-31T13:59:41.983Z,97947.84
2022-12-31T14:02:33.209Z,97945.13
2022-12-31T14:05:13.877Z,97945.38
2022-12-31T14:07:51.598Z,97942.41
2022-12-31T14:10:31.156Z,97945.03
2022-12-31T14:13:18.498Z,97942.75
2022-12-31T14:16:04.297Z,97951.41
2022-12-31T14:18:42.356Z,97946.59
2022-12-31T14:21:23.128Z,97944.56
2022-12-31T14:24:01.966Z,97949.91
2022-12-31T14:26:36.723Z,97948.41
2022-12-31T14:29:23.428Z,97936.75
2022-12-31T14:32:42.880Z,97949.19
2022-12-31T14:35:39.758Z,97944.47
2022-12-31T14:38:22.875Z,97946.84
2022-12-31T14:41:11.096Z,97952.38
2022-12-31T14:43:57.850Z,97948.94
2022-12-31T14:46:35.977Z,97960.34
2022-12-31T14:49:34.342Z,97962.78
2022-12-31T14:52:23.305Z,97967.84
2022-12-31T14:55:12.432Z,97971.53
2022-12-31T14:58:17.190Z,97968.56
2022-12-31T15:00:39.572Z,97967.75
2022-12-31T15:03:26.150Z,97975.03
2022-12-31T15:06:02.887Z,97976.16
2022-12-31T15:08:54.552Z,97979.41
2022-12-31T15:11:46.953Z,97986.03
2022-12-31T15:14:57.957Z,97979.78
2022-12-31T15:17:43.802Z,97984.16
2022-12-31T15:21:02.951Z,97994.25
2022-12-31T15:23:39.067Z,97983.25
2022-12-31T15:26:20.730Z,97978.78
2022-12-31T15:29:00.779Z,97978.28
2022-12-31T15:31:30.601Z,97978.47
2022-12-31T15:34:02.893Z,97984.72
2022-12-31T15:36:35.695Z,97984.44
2022-12-31T15:39:27.214Z,97987.66
2022-12-31T15:44:53.577Z,97991.00
2022-12-31T15:47:32.322Z,97984.28
2022-12-31T15:50:06.512Z,97987.53
2022-12-31T15:52:44.046Z,97997.44
2022-12-31T15:55:28.182Z,98001.44
2022-12-31T15:58:05.078Z,98009.78
2022-12-31T16:00:58.635Z,98001.28
2022-12-31T16:03:31.907Z,97993.91
2022-12-31T16:06:05.191Z,98001.44
2022-12-31T16:08:36.557Z,98000.66
2022-12-31T16:11:09.197Z,98001.16
2022-12-31T16:13:43.892Z,97996.53
2022-12-31T16:16:23.644Z,97995.38
2022-12-31T16:18:54.083Z,98003.25
2022-12-31T16:21:32.651Z,98000.19
2022-12-31T16:24:04.886Z,98001.81
2022-12-31T16:26:48.076Z,98006.44
2022-12-31T16:29:20.596Z,98009.38
2022-12-31T16:31:54.029Z,98003.28
2022-12-31T16:34:26.152Z,98001.16
2022-12-31T16:37:02.318Z,98005.50
2022-12-31T16:39:34.817Z,98012.38
2022-12-31T16:42:20.624Z,98013.50
2022-12-31T16:44:50.429Z,98012.06
2022-12-31T16:47:23.833Z,98021.53
2022-12-31T16:50:02.508Z,98012.56
2022-12-31T16:52:38.710Z,98008.25
2022-12-31T16:55:12.845Z,98000.56
2022-12-31T16:57:47.279Z,98013.19
2022-12-31T17:00:20.825Z,97992.88
2022-12-31T17:03:04.808Z,98005.03
2022-12-31T17:05:35.327Z,98006.94
2022-12-31T17:08:24.797Z,98008.25
2022-12-31T17:10:54.072Z,98004.69
2022-12-31T17:13:30.757Z,98009.81
2022-12-31T17:16:01.101Z,98004.91
2022-12-31T17:18:40.305Z,98004.56
2022-12-31T17:21:12.535Z,97992.69
2022-12-31T17:23:43.755Z,98007.47
2022-12-31T17:26:16.196Z,98010.03
2022-12-31T17:28:50.826Z,98009.84
2022-12-31T17:31:36.622Z,98015.94
2022-12-31T17:34:23.802Z,98008.25
2022-12-31T17:37:19.571Z,97999.09
2022-12-31T17:39:51.540Z,97994.78
2022-12-31T17:42:32.857Z,98002.63
2022-12-31T17:45:08.160Z,98004.25
2022-12-31T17:47:40.499Z,98008.56
2022-12-31T17:50:23.072Z,98015.75
2022-12-31T17:52:53.664Z,98016.91
2022-12-31T17:55:22.902Z,98003.75
2022-12-31T17:57:55.859Z,98018.81
2022-12-31T18:00:28.906Z,98014.00
2022-12-31T18:02:57.717Z,98006.31
2022-12-31T18:05:28.091Z,98001.38
2022-12-31T18:07:56.792Z,98012.56
2022-12-31T18:10:28.970Z,98015.47
2022-12-31T18:12:58.914Z,98008.09
2022-12-31T18:15:29.057Z,98015.75
2022-12-31T18:17:59.101Z,98015.13
2022-12-31T18:20:30.077Z,98021.06
2022-12-31T18:22:59.507Z,98014.81
2022-12-31T18:28:11.842Z,98026.03
2022-12-31T18:30:45.673Z,98026.03
2022-12-31T18:33:22.261Z,98030.03
2022-12-31T18:36:09.302Z,98023.00
2022-12-31T18:38:39.294Z,98027.47
2022-12-31T18:41:19.481Z,98032.44
2022-12-31T18:43:49.105Z,98027.47
2022-12-31T18:46:24.785Z,98033.41
2022-12-31T18:48:53.541Z,98032.91
2022-12-31T18:51:31.405Z,98037.75
2022-12-31T18:54:02.131Z,98041.25
2022-12-31T18:56:31.418Z,98051.34
2022-12-31T18:59:02.520Z,98042.22
2022-12-31T19:01:35.898Z,98046.84
2022-12-31T19:04:13.721Z,98044.75
2022-12-31T19:06:44.105Z,98050.38
2022-12-31T19:09:43.258Z,98032.91
2022-12-31T19:12:02.703Z,98048.28
2022-12-31T19:14:31.694Z,98049.25
2022-12-31T19:19:29.570Z,98054.06
2022-12-31T19:21:58.226Z,98058.50
2022-12-31T19:24:28.561Z,98062.34
2022-12-31T19:26:57.321Z,98052.09
2022-12-31T19:29:29.789Z,98060.72
2022-12-31T19:32:01.201Z,98063.28
2022-12-31T19:34:31.584Z,98056.41
2022-12-31T19:37:00.309Z,98069.38
2022-12-31T19:39:28.995Z,98061.53
2022-12-31T19:41:59.399Z,98076.41
2022-12-31T19:44:28.564Z,98074.31
2022-12-31T19:46:57.385Z,98072.25
2022-12-31T19:49:25.983Z,98077.81
2022-12-31T19:52:00.990Z,98082.78
2022-12-31T19:54:30.092Z,98083.28
2022-12-31T19:56:59.020Z,98089.19
2022-12-31T19:59:28.179Z,98085.84
2022-12-31T20:01:57.258Z,98084.03
2022-12-31T20:04:26.693Z,98073.97
2022-12-31T20:06:55.284Z,98089.31
2022-12-31T20:09:25.139Z,98099.09
2022-12-31T20:11:53.722Z,98117.31
2022-12-31T20:14:22.296Z,98114.28
2022-12-31T20:16:52.463Z,98113.16
2022-12-31T20:19:21.256Z,98107.38
2022-12-31T20:21:49.957Z,98114.41
2022-12-31T20:24:18.851Z,98120.63
2022-12-31T20:26:48.973Z,98118.34
2022-12-31T20:29:17.658Z,98119.22
2022-12-31T20:31:46.172Z,98126.56
2022-12-31T20:34:14.850Z,98116.56
2022-12-31T20:36:43.445Z,98132.16
2022-12-31T20:39:12.045Z,98128.41
2022-12-31T20:41:40.730Z,98118.16
2022-12-31T20:44:10.853Z,98130.00
2022-12-31T20:46:39.519Z,98140.38
2022-12-31T20:49:08.577Z,98140.38
2022-12-31T20:51:37.228Z,98146.06
2022-12-31T20:54:10.158Z,98139.22
2022-12-31T20:56:42.229Z,98140.31
2022-12-31T20:59:12.843Z,98133.72
2022-12-31T21:02:19.463Z,98140.38
2022-12-31T21:04:30.112Z,98131.84
2022-12-31T21:06:58.785Z,98140.91
2022-12-31T21:09:27.469Z,98140.06
2022-12-31T21:12:14.337Z,98133.25
2022-12-31T21:14:45.252Z,98143.41
2022-12-31T21:17:13.752Z,98137.78
2022-12-31T21:19:42.307Z,98149.75
2022-12-31T21:22:11.529Z,98137.31
2022-12-31T21:24:40.123Z,98137.88
2022-12-31T21:27:09.201Z,98148.75
2022-12-31T21:29:55.709Z,98148.16
2022-12-31T21:32:27.723Z,98153.97
2022-12-31T21:35:39.634Z,98145.72
2022-12-31T21:37:58.591Z,98145.34
2022-12-31T21:40:29.149Z,98147.84
2022-12-31T21:42:58.174Z,98148.16
2022-12-31T21:45:26.831Z,98139.09
2022-12-31T21:48:18.284Z,98145.03
2022-12-31T21:50:48.544Z,98141.50
2022-12-31T21:53:23.673Z,98145.50
2022-12-31T21:56:14.454Z,98140.59
2022-12-31T21:58:45.394Z,98140.06
2022-12-31T22:01:37.121Z,98138.78
2022-12-31T22:04:28.213Z,98134.19
2022-12-31T22:06:56.963Z,98128.44
2022-12-31T22:09:25.846Z,98131.31
2022-12-31T22:11:54.399Z,98126.72
2022-12-31T22:14:22.927Z,98119.59
2022-12-31T22:16:51.672Z,98119.91
2022-12-31T22:19:21.666Z,98112.25
2022-12-31T22:21:50.171Z,98121.81
2022-12-31T22:24:18.762Z,98109.66
2022-12-31T22:26:47.329Z,98109.16
2022-12-31T22:29:16.331Z,98111.34
2022-12-31T22:31:44.974Z,98111.50
2022-12-31T22:34:13.702Z,98103.53
2022-12-31T22:36:43.900Z,98100.22
2022-12-31T22:39:43.953Z,98103.13
2022-12-31T22:42:06.037Z,98100.81
2022-12-31T22:44:34.876Z,98100.50
2022-12-31T22:47:04.090Z,98103.66
2022-12-31T22:49:33.148Z,98093.59
2022-12-31T22:52:07.173Z,98101.66
2022-12-31T22:54:37.431Z,98107.97
2022-12-31T22:57:06.223Z,98098.44
2022-12-31T22:59:34.993Z,98104.88
2022-12-31T23:02:03.701Z,98112.09
2022-12-31T23:04:32.669Z,98120.94
2022-12-31T23:07:03.035Z,98125.75
2022-12-31T23:09:49.193Z,98130.38
2022-12-31T23:12:17.725Z,98137.63
2022-12-31T23:15:03.531Z,98139.84
2022-12-31T23:17:50.134Z,98126.59
2022-12-31T23:20:40.479Z,98133.28
2022-12-31T23:23:16.554Z,98141.94
2022-12-31T23:25:48.399Z,98147.38
2022-12-31T23:28:20.800Z,98143.53
2022-12-31T23:30:51.319Z,98146.84
2022-12-31T23:33:22.516Z,98138.41
2022-12-31T23:35:51.133Z,98146.84
2022-12-31T23:38:21.049Z,98147.16
2022-12-31T23:40:49.827Z,98142.56
2022-12-31T23:43:23.342Z,98153.91
2022-12-31T23:45:52.541Z,98159.34
2022-12-31T23:48:21.647Z,98163.53
2022-12-31T23:50:53.746Z,98158.09
2022-12-31T23:53:25.417Z,98159.13
2022-12-31T23:55:54.535Z,98150.69
2022-12-31T23:58:23.988Z,98164.13
